Holmdel Village, New Jersey
Current Conditions -  °F | °C
As of 12:15 PM on Friday 28 Nov 2014 (Local Time) from KBLM Reporting Station
Broken Clouds Broken Clouds  
Wind Chill: 27°   Ceiling: 3700
Heat Index: 37°   Visibility: 10mi
Dew Point: 18°   Wind: 20mph
Humidity: 45%   Direction: 320°NW
Pressure: 30.16"   Gusts: 25mph
Location:  40.3764°N, 74.1727°W
Report Text: KBLM 281715Z AUTO 32017G22KT 10SM BKN037 03/M08 A3016 RMK AO1
Loading
Personal Weather Stations






























Interactive Weather Map New forecast layout! Learn more

10-Day Weather Forecast

Advertisements
Track Severe Weather on mobile